aviador You're here:

CWSA Decoded Metar

SABLE ISLAND in NS, CANADA
Report Time2018-07-22 14:16:00
UTC Time2018-07-22 14:24:24
Flight Rules lifr LIFR
Wind180° at 12 kt
W.Rank180° ranks 15
Current wind is below 180° avg. (13.2)
Visibility1207 m
Phenomena:Light Rain
Mist
Clouds:N/A
Expected CloudBase > 400 ft AGL from Temp-Dew spread
Ceiling300 ft
Temp18°C (ISA +3)
Dew Point17°C (94% RH)
AAT16.1°C
QNH1028 hPa
Density Alt121 ft
Elevation13 ft
Report Wrong Elevation
Raw Report
SPECI CWSA 221416Z AUTO 18012KT 3/4SM -RA BR VV003 18/17 A3037 RMK
PRESFR SLP285=

Extra information for CWSA:More info

Metar Taf Metar & Taf Last 4 Metars F.Rules Stats Wind Profile Meteogram Temp Stats Airport Information Weather charts Add Link Nearby VenuesMetar ALERT Operation Metar Decoded Social comments